sensor_id;sensor_type;location;lat;lon;timestamp;temperature;humidity
67748;HTU21D;54543;50.712;6.070;2023-06-26T00:02:00;20.33;63.85
67748;HTU21D;54543;50.712;6.070;2023-06-26T00:04:26;20.32;63.92
67748;HTU21D;54543;50.712;6.070;2023-06-26T00:06:52;20.31;63.93
67748;HTU21D;54543;50.712;6.070;2023-06-26T00:09:17;20.30;63.80
67748;HTU21D;54543;50.712;6.070;2023-06-26T00:11:43;20.29;63.75
67748;HTU21D;54543;50.712;6.070;2023-06-26T00:14:08;20.30;64.01
67748;HTU21D;54543;50.712;6.070;2023-06-26T00:16:34;20.30;63.98
67748;HTU21D;54543;50.712;6.070;2023-06-26T00:18:59;20.31;63.47
67748;HTU21D;54543;50.712;6.070;2023-06-26T00:21:25;20.34;63.30
67748;HTU21D;54543;50.712;6.070;2023-06-26T00:23:51;20.34;63.37
67748;HTU21D;54543;50.712;6.070;2023-06-26T00:26:17;20.34;63.38
67748;HTU21D;54543;50.712;6.070;2023-06-26T00:28:42;20.31;63.21
67748;HTU21D;54543;50.712;6.070;2023-06-26T00:31:07;20.30;63.27
67748;HTU21D;54543;50.712;6.070;2023-06-26T00:33:33;20.30;63.18
67748;HTU21D;54543;50.712;6.070;2023-06-26T00:35:59;20.27;63.26
67748;HTU21D;54543;50.712;6.070;2023-06-26T00:38:25;20.22;63.74
67748;HTU21D;54543;50.712;6.070;2023-06-26T00:40:50;20.18;63.56
67748;HTU21D;54543;50.712;6.070;2023-06-26T00:43:16;20.15;63.66
67748;HTU21D;54543;50.712;6.070;2023-06-26T00:45:41;20.14;63.68
67748;HTU21D;54543;50.712;6.070;2023-06-26T00:48:09;20.17;63.66
67748;HTU21D;54543;50.712;6.070;2023-06-26T00:50:37;20.16;63.63
67748;HTU21D;54543;50.712;6.070;2023-06-26T00:53:03;20.17;63.48
67748;HTU21D;54543;50.712;6.070;2023-06-26T00:55:29;20.19;63.20
67748;HTU21D;54543;50.712;6.070;2023-06-26T00:57:55;20.22;63.02
67748;HTU21D;54543;50.712;6.070;2023-06-26T01:00:21;20.28;62.86
67748;HTU21D;54543;50.712;6.070;2023-06-26T01:02:47;20.32;62.70
67748;HTU21D;54543;50.712;6.070;2023-06-26T01:05:13;20.33;62.76
67748;HTU21D;54543;50.712;6.070;2023-06-26T01:07:44;20.30;62.96
67748;HTU21D;54543;50.712;6.070;2023-06-26T01:10:09;20.27;62.86
67748;HTU21D;54543;50.712;6.070;2023-06-26T01:12:36;20.35;62.39
67748;HTU21D;54543;50.712;6.070;2023-06-26T01:15:02;20.45;61.95
67748;HTU21D;54543;50.712;6.070;2023-06-26T01:17:27;20.53;61.85
67748;HTU21D;54543;50.712;6.070;2023-06-26T01:20:02;20.56;62.08
67748;HTU21D;54543;50.712;6.070;2023-06-26T01:27:49;20.72;60.93
67748;HTU21D;54543;50.712;6.070;2023-06-26T01:30:16;20.77;60.50
67748;HTU21D;54543;50.712;6.070;2023-06-26T01:32:43;20.85;60.29
67748;HTU21D;54543;50.712;6.070;2023-06-26T01:35:09;20.90;60.15
67748;HTU21D;54543;50.712;6.070;2023-06-26T01:37:34;20.94;60.05
67748;HTU21D;54543;50.712;6.070;2023-06-26T01:40:00;20.99;60.07
67748;HTU21D;54543;50.712;6.070;2023-06-26T01:42:25;21.01;59.84
67748;HTU21D;54543;50.712;6.070;2023-06-26T01:44:53;21.03;59.77
67748;HTU21D;54543;50.712;6.070;2023-06-26T01:47:22;21.05;59.80
67748;HTU21D;54543;50.712;6.070;2023-06-26T01:49:59;21.01;60.65
67748;HTU21D;54543;50.712;6.070;2023-06-26T01:55:37;20.91;60.34
67748;HTU21D;54543;50.712;6.070;2023-06-26T01:58:06;20.90;59.96
67748;HTU21D;54543;50.712;6.070;2023-06-26T02:00:32;20.86;60.13
67748;HTU21D;54543;50.712;6.070;2023-06-26T02:02:58;20.84;60.12
67748;HTU21D;54543;50.712;6.070;2023-06-26T02:05:24;20.81;60.06
67748;HTU21D;54543;50.712;6.070;2023-06-26T02:07:50;20.77;60.18
67748;HTU21D;54543;50.712;6.070;2023-06-26T02:10:16;20.72;60.41
67748;HTU21D;54543;50.712;6.070;2023-06-26T02:12:42;20.69;60.60
67748;HTU21D;54543;50.712;6.070;2023-06-26T02:15:08;20.64;60.84
67748;HTU21D;54543;50.712;6.070;2023-06-26T02:17:34;20.62;61.09
67748;HTU21D;54543;50.712;6.070;2023-06-26T02:20:00;20.58;61.34
67748;HTU21D;54543;50.712;6.070;2023-06-26T02:22:25;20.58;61.35
67748;HTU21D;54543;50.712;6.070;2023-06-26T02:24:51;20.56;61.48
67748;HTU21D;54543;50.712;6.070;2023-06-26T02:27:16;20.56;61.64
67748;HTU21D;54543;50.712;6.070;2023-06-26T02:29:42;20.56;61.75
67748;HTU21D;54543;50.712;6.070;2023-06-26T02:32:08;20.58;61.85
67748;HTU21D;54543;50.712;6.070;2023-06-26T02:34:34;20.56;61.77
67748;HTU21D;54543;50.712;6.070;2023-06-26T02:37:00;20.50;61.98
67748;HTU21D;54543;50.712;6.070;2023-06-26T02:39:26;20.48;61.98
67748;HTU21D;54543;50.712;6.070;2023-06-26T02:41:52;20.46;62.05
67748;HTU21D;54543;50.712;6.070;2023-06-26T02:44:17;20.43;62.50
67748;HTU21D;54543;50.712;6.070;2023-06-26T02:46:43;20.41;62.46
67748;HTU21D;54543;50.712;6.070;2023-06-26T02:49:09;20.35;62.66
67748;HTU21D;54543;50.712;6.070;2023-06-26T02:51:35;20.32;62.94
67748;HTU21D;54543;50.712;6.070;2023-06-26T02:54:00;20.31;63.09
67748;HTU21D;54543;50.712;6.070;2023-06-26T02:56:26;20.27;63.51
67748;HTU21D;54543;50.712;6.070;2023-06-26T02:58:55;20.21;63.73
67748;HTU21D;54543;50.712;6.070;2023-06-26T03:01:21;20.16;63.87
67748;HTU21D;54543;50.712;6.070;2023-06-26T03:03:47;20.14;64.01
67748;HTU21D;54543;50.712;6.070;2023-06-26T03:06:13;20.09;64.26
67748;HTU21D;54543;50.712;6.070;2023-06-26T03:08:39;20.04;64.72
67748;HTU21D;54543;50.712;6.070;2023-06-26T03:11:06;20.03;65.12
67748;HTU21D;54543;50.712;6.070;2023-06-26T03:13:33;20.00;64.82
67748;HTU21D;54543;50.712;6.070;2023-06-26T03:15:59;19.99;65.22
67748;HTU21D;54543;50.712;6.070;2023-06-26T03:18:24;19.96;65.32
67748;HTU21D;54543;50.712;6.070;2023-06-26T03:20:50;19.94;65.54
67748;HTU21D;54543;50.712;6.070;2023-06-26T03:23:16;19.87;65.84
67748;HTU21D;54543;50.712;6.070;2023-06-26T03:25:41;19.85;65.72
67748;HTU21D;54543;50.712;6.070;2023-06-26T03:28:07;19.81;66.17
67748;HTU21D;54543;50.712;6.070;2023-06-26T03:30:33;19.77;66.01
67748;HTU21D;54543;50.712;6.070;2023-06-26T03:32:58;19.75;66.18
67748;HTU21D;54543;50.712;6.070;2023-06-26T03:35:24;19.73;66.48
67748;HTU21D;54543;50.712;6.070;2023-06-26T03:37:50;19.70;66.62
67748;HTU21D;54543;50.712;6.070;2023-06-26T03:40:15;19.68;66.35
67748;HTU21D;54543;50.712;6.070;2023-06-26T03:42:42;19.67;66.57
67748;HTU21D;54543;50.712;6.070;2023-06-26T03:45:07;19.66;67.88
67748;HTU21D;54543;50.712;6.070;2023-06-26T03:47:33;19.65;66.48
67748;HTU21D;54543;50.712;6.070;2023-06-26T03:49:59;19.65;66.17
67748;HTU21D;54543;50.712;6.070;2023-06-26T03:52:24;19.62;66.40
67748;HTU21D;54543;50.712;6.070;2023-06-26T03:54:50;19.61;66.20
67748;HTU21D;54543;50.712;6.070;2023-06-26T03:57:15;19.58;66.37
67748;HTU21D;54543;50.712;6.070;2023-06-26T03:59:41;19.55;66.95
67748;HTU21D;54543;50.712;6.070;2023-06-26T04:02:06;19.57;66.43
67748;HTU21D;54543;50.712;6.070;2023-06-26T04:04:32;19.56;66.37
67748;HTU21D;54543;50.712;6.070;2023-06-26T04:06:57;19.53;66.24
67748;HTU21D;54543;50.712;6.070;2023-06-26T04:09:25;19.50;66.48
67748;HTU21D;54543;50.712;6.070;2023-06-26T04:11:50;19.47;67.00
67748;HTU21D;54543;50.712;6.070;2023-06-26T04:14:16;19.45;66.49
67748;HTU21D;54543;50.712;6.070;2023-06-26T04:16:42;19.44;66.43
67748;HTU21D;54543;50.712;6.070;2023-06-26T04:19:07;19.45;66.60
67748;HTU21D;54543;50.712;6.070;2023-06-26T04:21:35;19.45;66.32
67748;HTU21D;54543;50.712;6.070;2023-06-26T04:24:00;19.44;66.43
67748;HTU21D;54543;50.712;6.070;2023-06-26T04:26:26;19.43;66.47
67748;HTU21D;54543;50.712;6.070;2023-06-26T04:28:53;19.41;66.62
67748;HTU21D;54543;50.712;6.070;2023-06-26T04:31:19;19.39;66.79
67748;HTU21D;54543;50.712;6.070;2023-06-26T04:33:45;19.41;66.55
67748;HTU21D;54543;50.712;6.070;2023-06-26T04:36:16;19.42;66.79
67748;HTU21D;54543;50.712;6.070;2023-06-26T04:38:42;19.40;66.66
67748;HTU21D;54543;50.712;6.070;2023-06-26T04:41:07;19.42;66.80
67748;HTU21D;54543;50.712;6.070;2023-06-26T04:43:33;19.50;66.56
67748;HTU21D;54543;50.712;6.070;2023-06-26T04:45:59;19.55;66.49
67748;HTU21D;54543;50.712;6.070;2023-06-26T04:48:24;19.55;66.30
67748;HTU21D;54543;50.712;6.070;2023-06-26T04:50:53;19.55;66.32
67748;HTU21D;54543;50.712;6.070;2023-06-26T04:53:20;19.54;66.78
67748;HTU21D;54543;50.712;6.070;2023-06-26T04:55:46;19.50;67.01
67748;HTU21D;54543;50.712;6.070;2023-06-26T04:58:12;19.50;67.88
67748;HTU21D;54543;50.712;6.070;2023-06-26T05:00:37;19.50;66.93
67748;HTU21D;54543;50.712;6.070;2023-06-26T05:03:03;19.50;67.63
67748;HTU21D;54543;50.712;6.070;2023-06-26T05:05:29;19.52;67.82
67748;HTU21D;54543;50.712;6.070;2023-06-26T05:07:55;19.51;67.94
67748;HTU21D;54543;50.712;6.070;2023-06-26T05:10:21;19.54;68.33
67748;HTU21D;54543;50.712;6.070;2023-06-26T05:12:47;19.56;67.75
67748;HTU21D;54543;50.712;6.070;2023-06-26T05:15:12;19.57;67.76
67748;HTU21D;54543;50.712;6.070;2023-06-26T05:17:38;19.59;68.01
67748;HTU21D;54543;50.712;6.070;2023-06-26T05:20:03;19.60;68.50
67748;HTU21D;54543;50.712;6.070;2023-06-26T05:22:32;19.61;69.16
67748;HTU21D;54543;50.712;6.070;2023-06-26T05:24:58;19.66;69.33
67748;HTU21D;54543;50.712;6.070;2023-06-26T05:27:26;19.68;68.38
67748;HTU21D;54543;50.712;6.070;2023-06-26T05:29:52;19.68;69.54
67748;HTU21D;54543;50.712;6.070;2023-06-26T05:32:18;19.60;70.45
67748;HTU21D;54543;50.712;6.070;2023-06-26T05:34:51;19.57;70.81
67748;HTU21D;54543;50.712;6.070;2023-06-26T05:37:21;19.60;70.61
67748;HTU21D;54543;50.712;6.070;2023-06-26T05:39:47;19.66;69.84
67748;HTU21D;54543;50.712;6.070;2023-06-26T05:42:13;19.67;72.23
67748;HTU21D;54543;50.712;6.070;2023-06-26T05:44:39;19.62;69.86
67748;HTU21D;54543;50.712;6.070;2023-06-26T05:47:05;19.58;70.54
67748;HTU21D;54543;50.712;6.070;2023-06-26T05:49:31;19.54;70.35
67748;HTU21D;54543;50.712;6.070;2023-06-26T05:51:56;19.52;70.55
67748;HTU21D;54543;50.712;6.070;2023-06-26T05:54:23;19.53;72.11
67748;HTU21D;54543;50.712;6.070;2023-06-26T05:56:51;19.53;71.73
67748;HTU21D;54543;50.712;6.070;2023-06-26T05:59:19;19.56;71.65
67748;HTU21D;54543;50.712;6.070;2023-06-26T06:01:44;19.65;70.84
67748;HTU21D;54543;50.712;6.070;2023-06-26T06:04:10;19.72;70.24
67748;HTU21D;54543;50.712;6.070;2023-06-26T06:06:36;19.70;71.06
67748;HTU21D;54543;50.712;6.070;2023-06-26T06:09:01;19.68;72.21
67748;HTU21D;54543;50.712;6.070;2023-06-26T06:11:27;19.69;71.33
67748;HTU21D;54543;50.712;6.070;2023-06-26T06:13:52;19.72;71.55
67748;HTU21D;54543;50.712;6.070;2023-06-26T06:16:18;19.71;70.41
67748;HTU21D;54543;50.712;6.070;2023-06-26T06:18:43;19.69;70.84
67748;HTU21D;54543;50.712;6.070;2023-06-26T06:21:09;19.59;71.16
67748;HTU21D;54543;50.712;6.070;2023-06-26T06:23:34;19.50;71.22
67748;HTU21D;54543;50.712;6.070;2023-06-26T06:26:01;19.39;71.58
67748;HTU21D;54543;50.712;6.070;2023-06-26T06:28:27;19.32;73.03
67748;HTU21D;54543;50.712;6.070;2023-06-26T06:30:53;19.30;71.87
67748;HTU21D;54543;50.712;6.070;2023-06-26T06:33:18;19.35;72.93
67748;HTU21D;54543;50.712;6.070;2023-06-26T06:35:44;19.45;71.62
67748;HTU21D;54543;50.712;6.070;2023-06-26T06:38:09;19.53;71.22
67748;HTU21D;54543;50.712;6.070;2023-06-26T06:40:35;19.53;71.35
67748;HTU21D;54543;50.712;6.070;2023-06-26T06:43:00;19.56;70.95
67748;HTU21D;54543;50.712;6.070;2023-06-26T06:45:26;19.57;72.43
67748;HTU21D;54543;50.712;6.070;2023-06-26T06:47:51;19.66;71.61
67748;HTU21D;54543;50.712;6.070;2023-06-26T06:50:17;19.71;70.68
67748;HTU21D;54543;50.712;6.070;2023-06-26T06:52:43;19.79;70.43
67748;HTU21D;54543;50.712;6.070;2023-06-26T06:55:09;19.84;70.23
67748;HTU21D;54543;50.712;6.070;2023-06-26T06:57:36;19.92;70.27
67748;HTU21D;54543;50.712;6.070;2023-06-26T07:00:10;19.98;70.07
67748;HTU21D;54543;50.712;6.070;2023-06-26T07:02:37;19.98;70.14
67748;HTU21D;54543;50.712;6.070;2023-06-26T07:05:04;20.01;69.65
67748;HTU21D;54543;50.712;6.070;2023-06-26T07:07:31;19.96;69.97
67748;HTU21D;54543;50.712;6.070;2023-06-26T07:10:01;19.90;70.14
67748;HTU21D;54543;50.712;6.070;2023-06-26T07:12:27;19.87;69.55
67748;HTU21D;54543;50.712;6.070;2023-06-26T07:14:55;19.96;69.59
67748;HTU21D;54543;50.712;6.070;2023-06-26T07:17:20;20.14;70.02
67748;HTU21D;54543;50.712;6.070;2023-06-26T07:19:47;20.22;68.79
67748;HTU21D;54543;50.712;6.070;2023-06-26T07:22:12;20.25;68.42
67748;HTU21D;54543;50.712;6.070;2023-06-26T07:24:38;20.33;68.43
67748;HTU21D;54543;50.712;6.070;2023-06-26T07:27:04;20.35;67.98
67748;HTU21D;54543;50.712;6.070;2023-06-26T07:29:29;20.27;68.26
67748;HTU21D;54543;50.712;6.070;2023-06-26T07:31:54;20.31;68.66
67748;HTU21D;54543;50.712;6.070;2023-06-26T07:34:20;20.31;67.88
67748;HTU21D;54543;50.712;6.070;2023-06-26T07:36:45;20.27;68.38
67748;HTU21D;54543;50.712;6.070;2023-06-26T07:39:11;20.25;68.93
67748;HTU21D;54543;50.712;6.070;2023-06-26T07:41:37;20.26;67.91
67748;HTU21D;54543;50.712;6.070;2023-06-26T07:44:02;20.28;67.28
67748;HTU21D;54543;50.712;6.070;2023-06-26T07:46:29;20.37;67.77
67748;HTU21D;54543;50.712;6.070;2023-06-26T07:48:55;20.48;67.05
67748;HTU21D;54543;50.712;6.070;2023-06-26T07:51:20;20.53;67.18
67748;HTU21D;54543;50.712;6.070;2023-06-26T07:53:46;20.48;67.26
67748;HTU21D;54543;50.712;6.070;2023-06-26T07:56:12;20.47;66.68
67748;HTU21D;54543;50.712;6.070;2023-06-26T07:58:38;20.55;67.10
67748;HTU21D;54543;50.712;6.070;2023-06-26T08:01:04;20.62;66.92
67748;HTU21D;54543;50.712;6.070;2023-06-26T08:03:30;20.60;66.58
67748;HTU21D;54543;50.712;6.070;2023-06-26T08:05:55;20.58;66.33
67748;HTU21D;54543;50.712;6.070;2023-06-26T08:08:21;20.58;66.19
67748;HTU21D;54543;50.712;6.070;2023-06-26T08:10:46;20.68;65.24
67748;HTU21D;54543;50.712;6.070;2023-06-26T08:13:12;20.71;64.66
67748;HTU21D;54543;50.712;6.070;2023-06-26T08:15:37;20.71;64.53
67748;HTU21D;54543;50.712;6.070;2023-06-26T08:18:04;20.85;64.58
67748;HTU21D;54543;50.712;6.070;2023-06-26T08:20:30;21.08;64.05
67748;HTU21D;54543;50.712;6.070;2023-06-26T08:22:55;21.24;63.90
67748;HTU21D;54543;50.712;6.070;2023-06-26T08:25:21;21.34;64.08
67748;HTU21D;54543;50.712;6.070;2023-06-26T08:27:46;21.48;63.24
67748;HTU21D;54543;50.712;6.070;2023-06-26T08:30:12;21.66;62.84
67748;HTU21D;54543;50.712;6.070;2023-06-26T08:32:39;21.73;62.23
67748;HTU21D;54543;50.712;6.070;2023-06-26T08:35:06;21.74;61.28
67748;HTU21D;54543;50.712;6.070;2023-06-26T08:37:32;21.67;60.91
67748;HTU21D;54543;50.712;6.070;2023-06-26T08:39:59;21.66;61.47
67748;HTU21D;54543;50.712;6.070;2023-06-26T08:42:25;21.65;61.07
67748;HTU21D;54543;50.712;6.070;2023-06-26T08:44:50;21.54;61.59
67748;HTU21D;54543;50.712;6.070;2023-06-26T08:47:16;21.60;61.92
67748;HTU21D;54543;50.712;6.070;2023-06-26T08:49:47;21.73;61.99
67748;HTU21D;54543;50.712;6.070;2023-06-26T08:52:30;21.79;61.00
67748;HTU21D;54543;50.712;6.070;2023-06-26T08:54:59;21.78;61.34
67748;HTU21D;54543;50.712;6.070;2023-06-26T08:57:27;21.93;61.15
67748;HTU21D;54543;50.712;6.070;2023-06-26T08:59:54;22.05;60.54
67748;HTU21D;54543;50.712;6.070;2023-06-26T09:02:20;22.09;59.71
67748;HTU21D;54543;50.712;6.070;2023-06-26T09:04:50;22.08;60.25
67748;HTU21D;54543;50.712;6.070;2023-06-26T09:07:16;22.14;59.57
67748;HTU21D;54543;50.712;6.070;2023-06-26T09:09:42;22.07;59.73
67748;HTU21D;54543;50.712;6.070;2023-06-26T09:12:09;22.22;59.98
67748;HTU21D;54543;50.712;6.070;2023-06-26T09:14:36;22.29;57.58
67748;HTU21D;54543;50.712;6.070;2023-06-26T09:17:02;22.26;58.63
67748;HTU21D;54543;50.712;6.070;2023-06-26T09:19:28;22.22;57.96
67748;HTU21D;54543;50.712;6.070;2023-06-26T09:21:54;22.17;56.49
67748;HTU21D;54543;50.712;6.070;2023-06-26T09:24:20;22.23;57.96
67748;HTU21D;54543;50.712;6.070;2023-06-26T09:26:46;22.41;57.09
67748;HTU21D;54543;50.712;6.070;2023-06-26T09:29:14;22.42;55.57
67748;HTU21D;54543;50.712;6.070;2023-06-26T09:31:40;22.42;55.79
67748;HTU21D;54543;50.712;6.070;2023-06-26T09:34:06;22.42;56.28
67748;HTU21D;54543;50.712;6.070;2023-06-26T09:36:32;22.51;56.81
67748;HTU21D;54543;50.712;6.070;2023-06-26T09:39:04;22.55;55.18
67748;HTU21D;54543;50.712;6.070;2023-06-26T09:41:32;22.54;55.86
67748;HTU21D;54543;50.712;6.070;2023-06-26T09:44:02;22.61;56.16
67748;HTU21D;54543;50.712;6.070;2023-06-26T09:46:28;22.78;56.28
67748;HTU21D;54543;50.712;6.070;2023-06-26T09:49:10;22.71;54.91
67748;HTU21D;54543;50.712;6.070;2023-06-26T09:51:37;22.50;55.96
67748;HTU21D;54543;50.712;6.070;2023-06-26T09:54:04;22.50;54.99
67748;HTU21D;54543;50.712;6.070;2023-06-26T09:56:30;22.55;53.24
67748;HTU21D;54543;50.712;6.070;2023-06-26T09:59:01;22.52;54.75
67748;HTU21D;54543;50.712;6.070;2023-06-26T10:01:27;22.64;54.62
67748;HTU21D;54543;50.712;6.070;2023-06-26T10:03:54;22.78;53.84
67748;HTU21D;54543;50.712;6.070;2023-06-26T10:06:27;22.94;51.60
67748;HTU21D;54543;50.712;6.070;2023-06-26T10:08:54;22.88;52.40
67748;HTU21D;54543;50.712;6.070;2023-06-26T10:11:21;22.91;52.68
67748;HTU21D;54543;50.712;6.070;2023-06-26T10:13:49;23.06;52.48
67748;HTU21D;54543;50.712;6.070;2023-06-26T10:16:23;23.15;51.24
67748;HTU21D;54543;50.712;6.070;2023-06-26T10:18:56;23.20;50.33
67748;HTU21D;54543;50.712;6.070;2023-06-26T10:21:26;23.42;51.94
67748;HTU21D;54543;50.712;6.070;2023-06-26T10:23:53;23.58;51.03
67748;HTU21D;54543;50.712;6.070;2023-06-26T10:26:21;23.58;49.21
67748;HTU21D;54543;50.712;6.070;2023-06-26T10:28:48;23.52;50.86
67748;HTU21D;54543;50.712;6.070;2023-06-26T10:31:22;23.32;51.46
67748;HTU21D;54543;50.712;6.070;2023-06-26T10:33:49;23.01;51.90
67748;HTU21D;54543;50.712;6.070;2023-06-26T10:36:17;23.00;52.11
67748;HTU21D;54543;50.712;6.070;2023-06-26T10:38:51;23.14;50.41
67748;HTU21D;54543;50.712;6.070;2023-06-26T10:41:21;23.42;50.07
67748;HTU21D;54543;50.712;6.070;2023-06-26T10:44:10;23.68;50.19
67748;HTU21D;54543;50.712;6.070;2023-06-26T10:46:53;23.80;47.05
67748;HTU21D;54543;50.712;6.070;2023-06-26T10:49:28;23.51;48.47
67748;HTU21D;54543;50.712;6.070;2023-06-26T10:51:54;23.45;49.98
67748;HTU21D;54543;50.712;6.070;2023-06-26T10:54:22;23.51;50.30
67748;HTU21D;54543;50.712;6.070;2023-06-26T10:56:49;23.64;50.07
67748;HTU21D;54543;50.712;6.070;2023-06-26T10:59:17;23.50;50.63
67748;HTU21D;54543;50.712;6.070;2023-06-26T11:01:45;23.29;51.40
67748;HTU21D;54543;50.712;6.070;2023-06-26T11:04:11;23.38;50.19
67748;HTU21D;54543;50.712;6.070;2023-06-26T11:06:38;23.64;49.92
67748;HTU21D;54543;50.712;6.070;2023-06-26T11:14:18;23.32;49.66
67748;HTU21D;54543;50.712;6.070;2023-06-26T11:16:44;23.43;50.05
67748;HTU21D;54543;50.712;6.070;2023-06-26T11:19:10;23.70;48.69
67748;HTU21D;54543;50.712;6.070;2023-06-26T11:21:37;23.74;48.42
67748;HTU21D;54543;50.712;6.070;2023-06-26T11:24:05;23.69;48.14
67748;HTU21D;54543;50.712;6.070;2023-06-26T11:26:38;23.83;47.20
67748;HTU21D;54543;50.712;6.070;2023-06-26T11:29:04;24.02;47.73
67748;HTU21D;54543;50.712;6.070;2023-06-26T11:31:34;24.01;46.40
67748;HTU21D;54543;50.712;6.070;2023-06-26T11:34:10;23.88;48.29
67748;HTU21D;54543;50.712;6.070;2023-06-26T11:36:38;23.62;48.39
67748;HTU21D;54543;50.712;6.070;2023-06-26T11:39:05;23.51;48.15
67748;HTU21D;54543;50.712;6.070;2023-06-26T11:41:33;23.60;47.44
67748;HTU21D;54543;50.712;6.070;2023-06-26T11:44:03;23.55;45.92
67748;HTU21D;54543;50.712;6.070;2023-06-26T11:46:30;23.50;45.87
67748;HTU21D;54543;50.712;6.070;2023-06-26T11:48:56;23.51;46.01
67748;HTU21D;54543;50.712;6.070;2023-06-26T11:51:21;23.66;45.52
67748;HTU21D;54543;50.712;6.070;2023-06-26T11:53:48;23.88;45.88
67748;HTU21D;54543;50.712;6.070;2023-06-26T11:56:15;24.03;44.87
67748;HTU21D;54543;50.712;6.070;2023-06-26T12:01:35;24.19;45.79
67748;HTU21D;54543;50.712;6.070;2023-06-26T12:04:04;24.34;45.34
67748;HTU21D;54543;50.712;6.070;2023-06-26T12:06:38;24.46;44.45
67748;HTU21D;54543;50.712;6.070;2023-06-26T12:09:07;24.48;45.24
67748;HTU21D;54543;50.712;6.070;2023-06-26T12:11:35;24.62;44.51
67748;HTU21D;54543;50.712;6.070;2023-06-26T12:14:02;24.74;44.44
67748;HTU21D;54543;50.712;6.070;2023-06-26T12:16:31;24.80;42.96
67748;HTU21D;54543;50.712;6.070;2023-06-26T12:18:59;24.75;42.72
67748;HTU21D;54543;50.712;6.070;2023-06-26T12:24:03;24.30;43.39
67748;HTU21D;54543;50.712;6.070;2023-06-26T12:26:30;24.15;44.16
67748;HTU21D;54543;50.712;6.070;2023-06-26T12:29:06;23.91;42.89
67748;HTU21D;54543;50.712;6.070;2023-06-26T12:31:32;23.94;44.25
67748;HTU21D;54543;50.712;6.070;2023-06-26T12:33:58;23.83;43.77
67748;HTU21D;54543;50.712;6.070;2023-06-26T12:36:24;23.80;44.57
67748;HTU21D;54543;50.712;6.070;2023-06-26T12:38:52;23.74;44.36
67748;HTU21D;54543;50.712;6.070;2023-06-26T12:41:18;23.60;45.40
67748;HTU21D;54543;50.712;6.070;2023-06-26T12:43:46;23.69;45.84
67748;HTU21D;54543;50.712;6.070;2023-06-26T12:46:12;23.85;45.07
67748;HTU21D;54543;50.712;6.070;2023-06-26T12:48:44;23.79;45.21
67748;HTU21D;54543;50.712;6.070;2023-06-26T12:51:13;23.72;45.86
67748;HTU21D;54543;50.712;6.070;2023-06-26T12:53:39;23.71;45.73
67748;HTU21D;54543;50.712;6.070;2023-06-26T12:56:06;23.61;46.13
67748;HTU21D;54543;50.712;6.070;2023-06-26T12:58:33;23.56;46.57
67748;HTU21D;54543;50.712;6.070;2023-06-26T13:00:59;23.58;45.95
67748;HTU21D;54543;50.712;6.070;2023-06-26T13:03:24;23.73;44.96
67748;HTU21D;54543;50.712;6.070;2023-06-26T13:05:50;23.94;44.73
67748;HTU21D;54543;50.712;6.070;2023-06-26T13:08:16;24.03;42.61
67748;HTU21D;54543;50.712;6.070;2023-06-26T13:10:44;24.16;44.17
67748;HTU21D;54543;50.712;6.070;2023-06-26T13:13:10;24.17;42.41
67748;HTU21D;54543;50.712;6.070;2023-06-26T13:15:36;24.08;44.12
67748;HTU21D;54543;50.712;6.070;2023-06-26T13:18:02;23.85;44.74
67748;HTU21D;54543;50.712;6.070;2023-06-26T13:20:27;23.81;44.58
67748;HTU21D;54543;50.712;6.070;2023-06-26T13:22:54;23.67;44.74
67748;HTU21D;54543;50.712;6.070;2023-06-26T13:25:20;23.55;45.35
67748;HTU21D;54543;50.712;6.070;2023-06-26T13:27:46;23.60;45.32
67748;HTU21D;54543;50.712;6.070;2023-06-26T13:30:13;23.79;43.22
67748;HTU21D;54543;50.712;6.070;2023-06-26T13:32:39;23.96;43.75
67748;HTU21D;54543;50.712;6.070;2023-06-26T13:35:05;24.14;43.79
67748;HTU21D;54543;50.712;6.070;2023-06-26T13:37:31;24.30;42.49
67748;HTU21D;54543;50.712;6.070;2023-06-26T13:39:57;24.30;42.97
67748;HTU21D;54543;50.712;6.070;2023-06-26T13:42:24;24.32;42.32
67748;HTU21D;54543;50.712;6.070;2023-06-26T13:44:50;24.19;42.42
67748;HTU21D;54543;50.712;6.070;2023-06-26T13:47:16;24.25;42.50
67748;HTU21D;54543;50.712;6.070;2023-06-26T13:49:41;24.33;42.45
67748;HTU21D;54543;50.712;6.070;2023-06-26T13:52:07;24.42;40.99
67748;HTU21D;54543;50.712;6.070;2023-06-26T13:54:36;24.32;40.71
67748;HTU21D;54543;50.712;6.070;2023-06-26T13:57:05;24.11;42.01
67748;HTU21D;54543;50.712;6.070;2023-06-26T13:59:30;24.01;42.29
67748;HTU21D;54543;50.712;6.070;2023-06-26T14:01:56;23.97;41.86
67748;HTU21D;54543;50.712;6.070;2023-06-26T14:04:21;23.97;41.62
67748;HTU21D;54543;50.712;6.070;2023-06-26T14:06:47;23.87;41.39
67748;HTU21D;54543;50.712;6.070;2023-06-26T14:09:12;23.64;40.78
67748;HTU21D;54543;50.712;6.070;2023-06-26T14:11:38;23.54;41.61
67748;HTU21D;54543;50.712;6.070;2023-06-26T14:14:04;23.46;42.59
67748;HTU21D;54543;50.712;6.070;2023-06-26T14:16:29;23.52;42.23
67748;HTU21D;54543;50.712;6.070;2023-06-26T14:18:55;23.65;42.19
67748;HTU21D;54543;50.712;6.070;2023-06-26T14:21:21;23.62;41.41
67748;HTU21D;54543;50.712;6.070;2023-06-26T14:23:47;23.46;40.80
67748;HTU21D;54543;50.712;6.070;2023-06-26T14:26:13;23.47;42.13
67748;HTU21D;54543;50.712;6.070;2023-06-26T14:28:38;23.68;41.27
67748;HTU21D;54543;50.712;6.070;2023-06-26T14:31:05;24.02;41.10
67748;HTU21D;54543;50.712;6.070;2023-06-26T14:33:30;24.25;40.78
67748;HTU21D;54543;50.712;6.070;2023-06-26T14:35:55;24.40;41.08
67748;HTU21D;54543;50.712;6.070;2023-06-26T14:38:21;24.58;42.26
67748;HTU21D;54543;50.712;6.070;2023-06-26T14:40:47;24.86;41.65
67748;HTU21D;54543;50.712;6.070;2023-06-26T14:43:12;25.15;41.74
67748;HTU21D;54543;50.712;6.070;2023-06-26T14:45:38;25.63;39.97
67748;HTU21D;54543;50.712;6.070;2023-06-26T14:48:04;26.11;40.32
67748;HTU21D;54543;50.712;6.070;2023-06-26T14:50:29;26.39;38.26
67748;HTU21D;54543;50.712;6.070;2023-06-26T14:52:55;26.52;39.44
67748;HTU21D;54543;50.712;6.070;2023-06-26T14:55:20;26.80;39.30
67748;HTU21D;54543;50.712;6.070;2023-06-26T14:57:46;27.08;37.84
67748;HTU21D;54543;50.712;6.070;2023-06-26T15:00:12;27.22;37.27
67748;HTU21D;54543;50.712;6.070;2023-06-26T15:02:38;27.25;37.72
67748;HTU21D;54543;50.712;6.070;2023-06-26T15:05:04;27.31;36.53
67748;HTU21D;54543;50.712;6.070;2023-06-26T15:07:29;27.44;35.41
67748;HTU21D;54543;50.712;6.070;2023-06-26T15:09:55;27.05;34.07
67748;HTU21D;54543;50.712;6.070;2023-06-26T15:12:20;26.77;36.33
67748;HTU21D;54543;50.712;6.070;2023-06-26T15:14:47;27.00;36.46
67748;HTU21D;54543;50.712;6.070;2023-06-26T15:17:12;27.31;34.80
67748;HTU21D;54543;50.712;6.070;2023-06-26T15:19:38;27.32;35.37
67748;HTU21D;54543;50.712;6.070;2023-06-26T15:22:04;27.30;34.79
67748;HTU21D;54543;50.712;6.070;2023-06-26T15:24:30;27.22;36.13
67748;HTU21D;54543;50.712;6.070;2023-06-26T15:26:55;27.37;35.04
67748;HTU21D;54543;50.712;6.070;2023-06-26T15:29:21;27.49;34.83
67748;HTU21D;54543;50.712;6.070;2023-06-26T15:31:50;27.56;35.22